Airport View

Enter AWOS ICAO identifier for current METAR.

ex. KFNL

K20V 080430Z AUTO 02003KT 10SM CLR 13/M10 A3017 RMK AO2

8 Jul 2020 04:50

Frequency: 118.425

Phone: 970-724-9659

Other Area AWOS: KGNB - KC07 - K0CO - KEGE

TAF KEGE 072328Z 0800/0824 24020G30KT P6SM SKC FM080100 24010G18KT P6SM SKC FM080600 17005KT P6SM SKC FM081500 23005KT P6SM SKC FM081800 25015G25KT P6SM FEW150